Aguilar, Colorado
Current Conditions -  °F | °C
As of 1:54 PM on Thursday 23 Oct 2014 (Local Time) from KTAD Reporting Station
Clear Clear  
Wind Chill: 23°   Ceiling: Unl
Heat Index: 23°   Visibility: 10mi
Dew Point: -3°   Wind: 5mph
Humidity: 18%   Direction: 320°NW
Pressure: 30.16"   Gusts: NA
Location:  37.4°N, 104.65°W
Report Text: KTAD 231954Z AUTO 32004KT 10SM CLR 23/M03 A3016 RMK AO2 SLP155 T02281028
Loading
Personal Weather Stations






























Interactive Weather Map
Tropical Storm Tracking
New forecast layout! Learn more

10-Day Weather Forecast

Advertisements
Track Severe Weather on mobile